createdAt,value
2018-02-10T00:00:13.758Z,0
2018-02-10T00:01:23.752Z,0
2018-02-10T00:02:33.708Z,0
2018-02-10T00:03:43.906Z,0
2018-02-10T00:04:53.853Z,0
2018-02-10T00:06:03.802Z,0
2018-02-10T00:07:13.758Z,0
2018-02-10T00:08:23.192Z,0
2018-02-10T00:09:32.613Z,0
2018-02-10T00:10:42.571Z,0
2018-02-10T00:11:52.337Z,0
2018-02-10T00:13:02.304Z,0
2018-02-10T00:14:11.738Z,0
2018-02-10T00:15:21.429Z,0
2018-02-10T00:16:31.382Z,0
2018-02-10T00:17:41.089Z,0
2018-02-10T00:18:50.767Z,0
2018-02-10T00:20:00.719Z,0
2018-02-10T00:21:10.652Z,0
2018-02-10T00:22:20.342Z,0
2018-02-10T00:23:30.289Z,0
2018-02-10T00:24:40.247Z,0
2018-02-10T00:25:49.944Z,0
2018-02-10T00:26:59.646Z,0
2018-02-10T00:28:09.609Z,0
2018-02-10T00:29:19.552Z,0
2018-02-10T00:30:29.497Z,0
2018-02-10T00:31:39.463Z,0
2018-02-10T00:32:49.152Z,0
2018-02-10T00:33:58.834Z,0
2018-02-10T00:35:08.778Z,0
2018-02-10T00:36:18.472Z,0
2018-02-10T00:37:28.418Z,0
2018-02-10T00:38:38.376Z,0
2018-02-10T00:39:48.319Z,0
2018-02-10T00:40:58.263Z,0
2018-02-10T00:42:08.204Z,0
2018-02-10T00:43:18.153Z,0
2018-02-10T00:44:27.845Z,0
2018-02-10T00:45:37.276Z,0
2018-02-10T00:46:46.706Z,0
2018-02-10T00:47:56.652Z,0
2018-02-10T00:49:06.337Z,0
2018-02-10T00:50:16.288Z,0
2018-02-10T00:51:26.246Z,0
2018-02-10T00:52:35.958Z,0
2018-02-10T00:53:45.899Z,0
2018-02-10T00:54:55.936Z,0
2018-02-10T00:56:05.884Z,0
2018-02-10T00:57:15.835Z,0
2018-02-10T00:58:25.537Z,0
2018-02-10T00:59:35.255Z,0
2018-02-10T01:00:45.199Z,0
2018-02-10T01:01:54.681Z,0
2018-02-10T01:03:04.630Z,0
2018-02-10T01:04:14.329Z,0
2018-02-10T01:05:24.015Z,0
2018-02-10T01:06:34.202Z,0
2018-02-10T01:07:44.152Z,0
2018-02-10T01:08:54.104Z,0
2018-02-10T01:10:03.849Z,0
2018-02-10T01:11:13.813Z,0
2018-02-10T01:12:23.762Z,0
2018-02-10T01:13:33.468Z,0
2018-02-10T01:14:42.895Z,0
2018-02-10T01:15:52.861Z,0
2018-02-10T01:17:02.811Z,0
2018-02-10T01:18:12.760Z,0
2018-02-10T01:19:22.702Z,0
2018-02-10T01:20:32.645Z,0
2018-02-10T01:21:42.579Z,0
2018-02-10T01:22:52.532Z,0
2018-02-10T01:24:02.479Z,0
2018-02-10T01:25:12.436Z,0
2018-02-10T01:26:22.379Z,0
2018-02-10T01:27:32.342Z,0
2018-02-10T01:28:42.282Z,0
2018-02-10T01:29:51.968Z,0
2018-02-10T01:31:01.661Z,0
2018-02-10T01:32:11.664Z,0
2018-02-10T01:33:21.360Z,0
2018-02-10T01:34:31.053Z,0
2018-02-10T01:35:40.993Z,0
2018-02-10T01:36:50.672Z,0
2018-02-10T01:38:00.113Z,0
2018-02-10T01:39:09.555Z,0
2018-02-10T01:40:19.515Z,0
2018-02-10T01:41:29.482Z,0
2018-02-10T01:42:39.169Z,0
2018-02-10T01:43:49.110Z,0
2018-02-10T01:44:59.047Z,0
2018-02-10T01:46:08.977Z,0
2018-02-10T01:47:18.923Z,0
2018-02-10T01:48:28.878Z,0
2018-02-10T01:49:38.822Z,0
2018-02-10T01:50:48.766Z,0
2018-02-10T01:51:58.709Z,0
2018-02-10T01:53:08.652Z,0
2018-02-10T01:54:18.339Z,0
2018-02-10T01:55:28.023Z,0
2018-02-10T01:56:37.962Z,0
2018-02-10T01:57:47.918Z,0
2018-02-10T01:58:57.852Z,0
2018-02-10T02:00:07.809Z,0
2018-02-10T02:01:17.749Z,0
2018-02-10T02:02:27.689Z,0
2018-02-10T02:03:37.641Z,0
2018-02-10T02:04:47.318Z,0
2018-02-10T02:05:57.255Z,0
2018-02-10T02:07:07.212Z,0
2018-02-10T02:08:17.209Z,0
2018-02-10T02:09:27.153Z,0
2018-02-10T02:10:36.870Z,0
2018-02-10T02:11:46.558Z,0
2018-02-10T02:12:56.495Z,0
2018-02-10T02:14:06.441Z,0
2018-02-10T02:15:16.392Z,0
2018-02-10T02:16:26.095Z,0
2018-02-10T02:17:35.569Z,0
2018-02-10T02:18:45.262Z,0
2018-02-10T02:19:55.209Z,0
2018-02-10T02:21:05.153Z,0
2018-02-10T02:22:15.089Z,0
2018-02-10T02:23:25.032Z,0
2018-02-10T02:24:34.464Z,0
2018-02-10T02:25:44.417Z,0
2018-02-10T02:26:54.416Z,0
2018-02-10T02:28:04.354Z,0
2018-02-10T02:29:14.300Z,0
2018-02-10T02:30:23.992Z,0
2018-02-10T02:31:33.436Z,0
2018-02-10T02:32:43.125Z,0
2018-02-10T02:33:53.078Z,0
2018-02-10T02:35:02.773Z,0
2018-02-10T02:36:12.952Z,0
2018-02-10T02:37:22.663Z,0
2018-02-10T02:38:32.595Z,0
2018-02-10T02:39:42.035Z,0
2018-02-10T02:40:51.733Z,0
2018-02-10T02:42:01.433Z,0
2018-02-10T02:43:11.402Z,0
2018-02-10T02:44:21.376Z,0
2018-02-10T02:45:31.083Z,0
2018-02-10T02:46:41.034Z,0
2018-02-10T02:47:50.208Z,0
2018-02-10T02:49:00.153Z,0
2018-02-10T02:50:10.084Z,0
2018-02-10T02:51:19.771Z,0
2018-02-10T02:52:29.464Z,0
2018-02-10T02:53:39.433Z,0
2018-02-10T02:54:49.366Z,0
2018-02-10T02:55:59.307Z,0
2018-02-10T02:57:09.284Z,0
2018-02-10T02:58:19.286Z,0
2018-02-10T02:59:29.221Z,0
2018-02-10T03:00:39.237Z,0
2018-02-10T03:01:48.923Z,0
2018-02-10T03:02:58.613Z,0
2018-02-10T03:04:08.291Z,0
2018-02-10T03:05:18.250Z,0
2018-02-10T03:06:28.191Z,0
2018-02-10T03:07:38.138Z,0
2018-02-10T03:08:47.831Z,0
2018-02-10T03:09:57.782Z,0
2018-02-10T03:11:07.467Z,0
2018-02-10T03:12:17.405Z,0
2018-02-10T03:13:27.135Z,0
2018-02-10T03:14:37.076Z,0
2018-02-10T03:15:47.020Z,0
2018-02-10T03:16:56.704Z,0
2018-02-10T03:18:06.642Z,0
2018-02-10T03:19:16.406Z,0
2018-02-10T03:20:26.407Z,0
2018-02-10T03:21:36.158Z,0
2018-02-10T03:22:46.093Z,0
2018-02-10T03:23:56.031Z,0
2018-02-10T03:25:05.968Z,0
2018-02-10T03:26:15.906Z,0
2018-02-10T03:27:25.590Z,0
2018-02-10T03:28:35.527Z,0
2018-02-10T03:29:45.484Z,0
2018-02-10T03:30:54.926Z,0
2018-02-10T03:32:04.871Z,0
2018-02-10T03:33:14.305Z,0
2018-02-10T03:34:23.987Z,0
2018-02-10T03:35:33.701Z,0
2018-02-10T03:36:43.393Z,0
2018-02-10T03:37:53.083Z,0
2018-02-10T03:39:03.027Z,0
2018-02-10T03:40:12.717Z,0
2018-02-10T03:41:22.663Z,0
2018-02-10T03:42:32.602Z,0
2018-02-10T03:43:42.550Z,0
2018-02-10T03:44:52.241Z,0
2018-02-10T03:46:01.919Z,0
2018-02-10T03:47:11.350Z,0
2018-02-10T03:48:21.302Z,0
2018-02-10T03:49:30.989Z,0
2018-02-10T03:50:40.725Z,0
2018-02-10T03:51:50.429Z,0
2018-02-10T03:53:00.117Z,0
2018-02-10T03:54:10.046Z,0
2018-02-10T03:55:19.737Z,0
2018-02-10T03:56:29.677Z,0
2018-02-10T03:57:39.620Z,0
2018-02-10T03:58:49.569Z,0
2018-02-10T03:59:59.501Z,0
2018-02-10T04:01:09.196Z,0
2018-02-10T04:02:19.188Z,0
2018-02-10T04:03:29.127Z,0
2018-02-10T04:04:38.558Z,0
2018-02-10T04:05:48.495Z,0
2018-02-10T04:06:58.449Z,0
2018-02-10T04:08:08.390Z,0
2018-02-10T04:09:18.078Z,0
2018-02-10T04:10:27.765Z,0
2018-02-10T04:11:37.709Z,0
2018-02-10T04:12:47.651Z,0
2018-02-10T04:13:57.591Z,0
2018-02-10T04:15:07.297Z,0
2018-02-10T04:16:16.476Z,0
2018-02-10T04:17:26.423Z,0
2018-02-10T04:18:36.360Z,0
2018-02-10T04:19:46.300Z,0
2018-02-10T04:20:56.231Z,0
2018-02-10T04:22:05.911Z,0
2018-02-10T04:23:15.855Z,0
2018-02-10T04:24:25.801Z,0
2018-02-10T04:25:35.735Z,0
2018-02-10T04:26:45.687Z,0
2018-02-10T04:27:55.365Z,0
2018-02-10T04:29:05.048Z,0
2018-02-10T04:30:14.729Z,0
2018-02-10T04:31:24.660Z,0
2018-02-10T04:32:34.335Z,0
2018-02-10T04:33:44.270Z,0
2018-02-10T04:34:53.966Z,0
2018-02-10T04:36:03.401Z,0
2018-02-10T04:37:13.081Z,0
2018-02-10T04:38:23.014Z,0
2018-02-10T04:39:32.960Z,0
2018-02-10T04:40:42.643Z,0
2018-02-10T04:41:52.326Z,0
2018-02-10T04:43:02.273Z,0
2018-02-10T04:44:12.244Z,0
2018-02-10T04:45:21.929Z,0
2018-02-10T04:46:31.874Z,0
2018-02-10T04:47:41.825Z,0
2018-02-10T04:48:51.762Z,0
2018-02-10T04:50:01.702Z,0
2018-02-10T04:51:11.382Z,0
2018-02-10T04:52:21.320Z,0
2018-02-10T04:53:31.017Z,0
2018-02-10T04:54:40.712Z,0
2018-02-10T04:55:50.649Z,0
2018-02-10T04:57:00.588Z,0
2018-02-10T04:58:10.276Z,0
2018-02-10T04:59:20.215Z,0
2018-02-10T05:00:29.899Z,0
2018-02-10T05:01:39.844Z,0
2018-02-10T05:02:49.523Z,0
2018-02-10T05:03:59.469Z,0
2018-02-10T05:05:09.419Z,0
2018-02-10T05:06:19.367Z,0
2018-02-10T05:07:28.815Z,0
2018-02-10T05:08:38.762Z,0
2018-02-10T05:09:48.706Z,0
2018-02-10T05:10:58.660Z,0
2018-02-10T05:12:08.593Z,0
2018-02-10T05:13:18.573Z,0
2018-02-10T05:14:28.520Z,0
2018-02-10T05:15:38.207Z,0
2018-02-10T05:16:47.904Z,0
2018-02-10T05:17:57.845Z,0
2018-02-10T05:19:07.807Z,0
2018-02-10T05:20:17.527Z,0
2018-02-10T05:21:27.476Z,0
2018-02-10T05:22:37.411Z,0
2018-02-10T05:23:47.347Z,0
2018-02-10T05:24:57.285Z,0
2018-02-10T05:26:07.234Z,0
2018-02-10T05:27:16.669Z,0
2018-02-10T05:28:26.609Z,0
2018-02-10T05:29:36.306Z,0
2018-02-10T05:30:46.246Z,0
2018-02-10T05:31:56.196Z,0
2018-02-10T05:33:05.876Z,0
2018-02-10T05:34:15.563Z,0
2018-02-10T05:35:25.249Z,0
2018-02-10T05:36:35.397Z,0
2018-02-10T05:37:45.352Z,0
2018-02-10T05:38:55.312Z,0
2018-02-10T05:40:04.994Z,0
2018-02-10T05:41:14.949Z,0
2018-02-10T05:42:24.893Z,0
2018-02-10T05:43:34.832Z,0
2018-02-10T05:44:44.772Z,0
2018-02-10T05:45:54.453Z,0
2018-02-10T05:47:04.451Z,0
2018-02-10T05:48:14.408Z,0
2018-02-10T05:49:24.352Z,0
2018-02-10T05:50:34.307Z,0
2018-02-10T05:51:44.274Z,0
2018-02-10T05:52:54.225Z,0
2018-02-10T05:54:04.165Z,0
2018-02-10T05:55:13.586Z,0
2018-02-10T05:56:23.523Z,0
2018-02-10T05:57:33.535Z,0
2018-02-10T05:58:43.236Z,0
2018-02-10T05:59:52.916Z,0
2018-02-10T06:01:02.856Z,0
2018-02-10T06:02:12.803Z,0
2018-02-10T06:03:22.735Z,0
2018-02-10T06:04:32.686Z,0
2018-02-10T06:05:42.618Z,0
2018-02-10T06:06:52.557Z,0
2018-02-10T06:08:01.979Z,0
2018-02-10T06:09:11.929Z,0
2018-02-10T06:10:21.671Z,0
2018-02-10T06:11:31.614Z,0
2018-02-10T06:12:41.582Z,0
2018-02-10T06:13:51.573Z,0
2018-02-10T06:15:00.999Z,0
2018-02-10T06:16:10.722Z,0
2018-02-10T06:17:20.674Z,0
2018-02-10T06:18:30.616Z,0
2018-02-10T06:19:40.551Z,0
2018-02-10T06:20:50.302Z,0
2018-02-10T06:22:00.249Z,0
2018-02-10T06:23:10.199Z,0
2018-02-10T06:24:20.138Z,0
2018-02-10T06:25:30.100Z,0
2018-02-10T06:26:39.817Z,0
2018-02-10T06:27:49.811Z,0
2018-02-10T06:28:59.762Z,0
2018-02-10T06:30:09.725Z,0
2018-02-10T06:31:19.659Z,0
2018-02-10T06:32:29.607Z,0
2018-02-10T06:33:39.293Z,0
2018-02-10T06:34:49.248Z,0
2018-02-10T06:35:59.185Z,0
2018-02-10T06:37:09.161Z,0
2018-02-10T06:38:18.867Z,0
2018-02-10T06:39:28.820Z,0
2018-02-10T06:40:38.774Z,0
2018-02-10T06:41:48.717Z,0
2018-02-10T06:42:58.657Z,5
2018-02-10T06:44:08.351Z,5
2018-02-10T06:45:18.296Z,5
2018-02-10T06:46:28.242Z,5
2018-02-10T06:47:37.926Z,5
2018-02-10T06:48:47.618Z,5
2018-02-10T06:49:57.569Z,5
2018-02-10T06:51:07.263Z,5
2018-02-10T06:52:17.202Z,5
2018-02-10T06:53:27.137Z,10
2018-02-10T06:54:37.075Z,10
2018-02-10T06:55:46.496Z,10
2018-02-10T06:56:56.437Z,10
2018-02-10T06:58:06.380Z,10
2018-02-10T06:59:16.316Z,10
2018-02-10T07:00:26.267Z,10
2018-02-10T07:01:36.217Z,10
2018-02-10T07:02:46.165Z,10
2018-02-10T07:03:55.859Z,15
2018-02-10T07:05:05.804Z,15
2018-02-10T07:06:15.235Z,15
2018-02-10T07:07:25.170Z,15
2018-02-10T07:08:35.126Z,15
2018-02-10T07:09:45.069Z,15
2018-02-10T07:10:54.768Z,15
2018-02-10T07:12:04.720Z,20
2018-02-10T07:13:14.404Z,20
2018-02-10T07:14:24.363Z,20
2018-02-10T07:15:34.306Z,15
2018-02-10T07:16:44.243Z,15
2018-02-10T07:17:54.223Z,15
2018-02-10T07:19:03.415Z,15
2018-02-10T07:20:13.104Z,20
2018-02-10T07:21:23.058Z,20
2018-02-10T07:22:32.995Z,20
2018-02-10T07:23:42.943Z,20
2018-02-10T07:24:52.890Z,20
2018-02-10T07:26:02.836Z,20
2018-02-10T07:27:12.520Z,20
2018-02-10T07:28:22.205Z,20
2018-02-10T07:29:32.150Z,20
2018-02-10T07:30:42.088Z,25
2018-02-10T07:31:51.786Z,25
2018-02-10T07:33:01.727Z,25
2018-02-10T07:34:11.687Z,25
2018-02-10T07:35:21.634Z,25
2018-02-10T07:36:31.067Z,25
2018-02-10T07:37:41.041Z,25
2018-02-10T07:38:50.988Z,25
2018-02-10T07:40:00.918Z,30
2018-02-10T07:41:10.868Z,30
2018-02-10T07:42:20.808Z,30
2018-02-10T07:43:30.749Z,30
2018-02-10T07:44:40.698Z,30
2018-02-10T07:45:50.640Z,30
2018-02-10T07:47:00.585Z,35
2018-02-10T07:48:09.747Z,35
2018-02-10T07:49:19.435Z,35
2018-02-10T07:50:29.121Z,35
2018-02-10T07:51:38.299Z,35
2018-02-10T07:52:47.740Z,35
2018-02-10T07:53:57.703Z,40
2018-02-10T07:55:07.390Z,40
2018-02-10T07:56:17.331Z,40
2018-02-10T07:57:27.272Z,40
2018-02-10T07:58:36.986Z,45
2018-02-10T07:59:46.669Z,45
2018-02-10T08:00:56.102Z,45
2018-02-10T08:02:06.070Z,45
2018-02-10T08:03:15.753Z,45
2018-02-10T08:04:25.446Z,50
2018-02-10T08:05:35.389Z,50
2018-02-10T08:06:45.341Z,50
2018-02-10T08:07:55.302Z,55
2018-02-10T08:09:05.015Z,60
2018-02-10T08:10:14.946Z,60
2018-02-10T08:11:24.889Z,60
2018-02-10T08:12:34.577Z,60
2018-02-10T08:13:44.264Z,65
2018-02-10T08:14:54.208Z,65
2018-02-10T08:16:04.152Z,65
2018-02-10T08:17:13.860Z,65
2018-02-10T08:18:23.811Z,65
2018-02-10T08:19:33.518Z,65
2018-02-10T08:20:43.465Z,70
2018-02-10T08:21:53.404Z,75
2018-02-10T08:23:03.348Z,75
2018-02-10T08:24:13.032Z,75
2018-02-10T08:25:22.985Z,75
2018-02-10T08:26:32.977Z,75
2018-02-10T08:27:42.914Z,75
2018-02-10T08:28:52.875Z,70
2018-02-10T08:30:02.817Z,70
2018-02-10T08:31:12.769Z,70
2018-02-10T08:32:22.717Z,75
2018-02-10T08:33:32.408Z,80
2018-02-10T08:34:42.088Z,80
2018-02-10T08:35:52.038Z,80
2018-02-10T08:37:01.464Z,80
2018-02-10T08:38:11.405Z,80
2018-02-10T08:39:21.361Z,80
2018-02-10T08:40:31.066Z,80
2018-02-10T08:41:40.750Z,80
2018-02-10T08:42:50.451Z,80
2018-02-10T08:44:00.148Z,85
2018-02-10T08:45:10.095Z,85
2018-02-10T08:46:20.052Z,85
2018-02-10T08:47:29.736Z,85
2018-02-10T08:48:39.684Z,85
2018-02-10T08:49:49.376Z,85
2018-02-10T08:50:59.072Z,85
2018-02-10T08:52:09.007Z,90
2018-02-10T08:53:18.951Z,90
2018-02-10T08:54:28.907Z,90
2018-02-10T08:55:38.591Z,95
2018-02-10T08:56:48.530Z,100
2018-02-10T08:57:58.472Z,100
2018-02-10T08:59:08.423Z,105
2018-02-10T09:00:18.378Z,105
2018-02-10T09:01:28.325Z,110
2018-02-10T09:02:38.263Z,110
2018-02-10T09:03:47.969Z,115
2018-02-10T09:04:57.931Z,120
2018-02-10T09:06:07.870Z,120
2018-02-10T09:07:17.826Z,120
2018-02-10T09:08:27.769Z,125
2018-02-10T09:09:37.468Z,125
2018-02-10T09:10:47.413Z,110
2018-02-10T09:11:57.356Z,100
2018-02-10T09:13:07.315Z,95
2018-02-10T09:14:17.269Z,90
2018-02-10T09:15:27.214Z,90
2018-02-10T09:16:36.911Z,85
2018-02-10T09:17:46.865Z,85
2018-02-10T09:18:56.801Z,85
2018-02-10T09:20:06.227Z,85
2018-02-10T09:21:15.918Z,80
2018-02-10T09:22:25.601Z,85
2018-02-10T09:23:35.292Z,85
2018-02-10T09:24:45.245Z,90
2018-02-10T09:25:55.285Z,90
2018-02-10T09:27:04.978Z,85
2018-02-10T09:28:14.973Z,80
2018-02-10T09:29:24.669Z,80
2018-02-10T09:30:34.632Z,85
2018-02-10T09:31:44.312Z,85
2018-02-10T09:32:54.250Z,90
2018-02-10T09:34:03.943Z,90
2018-02-10T09:35:13.645Z,95
2018-02-10T09:36:23.595Z,95
2018-02-10T09:37:33.542Z,95
2018-02-10T09:38:43.497Z,95
2018-02-10T09:39:53.201Z,95
2018-02-10T09:41:02.908Z,100
2018-02-10T09:42:12.847Z,110
2018-02-10T09:43:22.865Z,115
2018-02-10T09:44:32.299Z,120
2018-02-10T09:45:42.263Z,120
2018-02-10T09:46:52.221Z,125
2018-02-10T09:48:01.907Z,130
2018-02-10T09:49:11.590Z,130
2018-02-10T09:50:21.278Z,135
2018-02-10T09:51:31.231Z,130
2018-02-10T09:52:40.996Z,130
2018-02-10T09:53:50.947Z,120
2018-02-10T09:55:00.640Z,125
2018-02-10T09:56:10.590Z,130
2018-02-10T09:57:20.281Z,140
2018-02-10T09:58:29.968Z,155
2018-02-10T09:59:39.913Z,165
2018-02-10T10:00:49.867Z,170
2018-02-10T10:01:59.558Z,185
2018-02-10T10:03:09.500Z,190
2018-02-10T10:04:19.458Z,185
2018-02-10T10:05:29.405Z,185
2018-02-10T10:06:39.342Z,195
2018-02-10T10:07:49.041Z,210
2018-02-10T10:08:58.984Z,220
2018-02-10T10:10:08.930Z,215
2018-02-10T10:11:18.892Z,215
2018-02-10T10:12:28.838Z,220
2018-02-10T10:13:38.784Z,220
2018-02-10T10:14:48.471Z,220
2018-02-10T10:15:58.153Z,220
2018-02-10T10:17:07.845Z,215
2018-02-10T10:18:17.550Z,220
2018-02-10T10:19:27.502Z,220
2018-02-10T10:20:37.464Z,220
2018-02-10T10:21:47.412Z,210
2018-02-10T10:22:57.360Z,195
2018-02-10T10:24:07.311Z,180
2018-02-10T10:25:17.023Z,165
2018-02-10T10:26:26.710Z,150
2018-02-10T10:27:36.669Z,135
2018-02-10T10:28:46.615Z,130
2018-02-10T10:29:56.561Z,135
2018-02-10T10:31:06.501Z,140
2018-02-10T10:32:16.449Z,145
2018-02-10T10:33:26.412Z,160
2018-02-10T10:34:36.115Z,160
2018-02-10T10:35:45.570Z,170
2018-02-10T10:36:55.511Z,175
2018-02-10T10:38:05.472Z,180
2018-02-10T10:39:15.164Z,175
2018-02-10T10:40:24.605Z,160
2018-02-10T10:41:34.590Z,150
2018-02-10T10:42:44.277Z,145
2018-02-10T10:43:54.347Z,140
2018-02-10T10:45:04.292Z,135
2018-02-10T10:46:14.302Z,135
2018-02-10T10:47:24.013Z,135
2018-02-10T10:48:33.976Z,135
2018-02-10T10:49:43.942Z,125
2018-02-10T10:50:53.645Z,115
2018-02-10T10:52:03.330Z,115
2018-02-10T10:53:13.343Z,120
2018-02-10T10:54:23.283Z,120
2018-02-10T10:55:32.981Z,120
2018-02-10T10:56:42.404Z,125
2018-02-10T10:57:52.380Z,125
2018-02-10T10:59:02.071Z,140
2018-02-10T11:00:12.024Z,145
2018-02-10T11:01:21.971Z,145
2018-02-10T11:02:31.933Z,145
2018-02-10T11:03:41.887Z,150
2018-02-10T11:04:51.833Z,155
2018-02-10T11:06:01.773Z,165
2018-02-10T11:07:11.726Z,170
2018-02-10T11:08:21.677Z,185
2018-02-10T11:09:31.617Z,190
2018-02-10T11:10:41.563Z,195
2018-02-10T11:11:51.517Z,200
2018-02-10T11:13:01.457Z,200
2018-02-10T11:14:11.157Z,205
2018-02-10T11:15:21.121Z,200
2018-02-10T11:16:31.075Z,205
2018-02-10T11:17:41.026Z,200
2018-02-10T11:18:51.034Z,200
2018-02-10T11:20:00.980Z,200
2018-02-10T11:21:10.925Z,205
2018-02-10T11:22:20.971Z,205
2018-02-10T11:23:30.664Z,200
2018-02-10T11:24:40.611Z,210
2018-02-10T11:25:50.300Z,225
2018-02-10T11:26:59.740Z,235
2018-02-10T11:28:09.711Z,255
2018-02-10T11:29:19.664Z,270
2018-02-10T11:30:29.374Z,275
2018-02-10T11:31:39.342Z,280
2018-02-10T11:32:49.601Z,290
2018-02-10T11:33:59.297Z,300
2018-02-10T11:35:08.996Z,320
2018-02-10T11:36:18.956Z,335
2018-02-10T11:37:28.959Z,345
2018-02-10T11:38:38.652Z,345
2018-02-10T11:39:48.591Z,345
2018-02-10T11:40:58.298Z,360
2018-02-10T11:42:07.734Z,375
2018-02-10T11:43:17.695Z,380
2018-02-10T11:44:27.419Z,400
2018-02-10T11:45:36.848Z,415
2018-02-10T11:46:46.799Z,415
2018-02-10T11:47:56.745Z,410
2018-02-10T11:49:06.777Z,430
2018-02-10T11:50:16.735Z,440
2018-02-10T11:51:26.683Z,465
2018-02-10T11:52:36.735Z,475
2018-02-10T11:53:45.895Z,485
2018-02-10T11:54:55.864Z,500
2018-02-10T11:56:05.599Z,485
2018-02-10T11:57:15.535Z,470
2018-02-10T11:58:25.481Z,475
2018-02-10T11:59:35.728Z,470
2018-02-10T12:00:44.902Z,460
2018-02-10T12:01:54.597Z,465
2018-02-10T12:03:04.537Z,460
2018-02-10T12:04:14.498Z,430
2018-02-10T12:05:23.940Z,420
2018-02-10T12:06:33.637Z,445
2018-02-10T12:07:43.078Z,465
2018-02-10T12:08:53.029Z,430
2018-02-10T12:10:02.746Z,410
2018-02-10T12:11:12.462Z,410
2018-02-10T12:12:22.153Z,420
2018-02-10T12:13:31.928Z,420
2018-02-10T12:14:41.655Z,415
2018-02-10T12:15:51.369Z,425
2018-02-10T12:17:01.329Z,435
2018-02-10T12:18:11.282Z,460
2018-02-10T12:19:20.972Z,470
2018-02-10T12:20:30.937Z,480
2018-02-10T12:21:40.625Z,470
2018-02-10T12:22:50.065Z,440
2018-02-10T12:24:00.048Z,440
2018-02-10T12:25:10.032Z,455
2018-02-10T12:26:19.996Z,480
2018-02-10T12:27:29.955Z,510
2018-02-10T12:28:39.892Z,550
2018-02-10T12:29:49.592Z,580
2018-02-10T12:30:59.553Z,595
2018-02-10T12:32:09.665Z,605
2018-02-10T12:33:19.610Z,600
2018-02-10T12:34:29.053Z,565
2018-02-10T12:35:38.990Z,540
2018-02-10T12:36:48.420Z,495
2018-02-10T12:37:58.101Z,480
2018-02-10T12:39:08.069Z,480
2018-02-10T12:40:18.038Z,490
2018-02-10T12:41:27.465Z,490
2018-02-10T12:42:37.414Z,485
2018-02-10T12:43:47.115Z,465
2018-02-10T12:44:57.110Z,435
2018-02-10T12:46:07.070Z,420
2018-02-10T12:47:17.025Z,405
2018-02-10T12:48:26.720Z,435
2018-02-10T12:49:36.436Z,455
2018-02-10T12:50:46.388Z,445
2018-02-10T12:51:56.345Z,470
2018-02-10T12:53:06.301Z,515
2018-02-10T12:54:15.998Z,560
2018-02-10T12:55:25.964Z,590
2018-02-10T12:56:35.988Z,640
2018-02-10T12:57:45.949Z,725
2018-02-10T12:58:55.905Z,885
2018-02-10T13:00:05.373Z,700
2018-02-10T13:01:15.333Z,610
2018-02-10T13:02:25.321Z,540
2018-02-10T13:03:35.272Z,530
2018-02-10T13:04:45.221Z,620
2018-02-10T13:05:54.662Z,1055
2018-02-10T13:07:04.620Z,1485
2018-02-10T13:08:14.587Z,1575
2018-02-10T13:09:24.290Z,1560
2018-02-10T13:10:34.248Z,1480
2018-02-10T13:11:43.941Z,1470
2018-02-10T13:12:53.892Z,1245
2018-02-10T13:14:03.852Z,1435
2018-02-10T13:15:13.552Z,1490
2018-02-10T13:16:23.496Z,1430
2018-02-10T13:17:33.476Z,1530
2018-02-10T13:18:43.444Z,1755
2018-02-10T13:19:53.156Z,1750
2018-02-10T13:21:03.133Z,1760
2018-02-10T13:22:13.087Z,1625
2018-02-10T13:23:23.040Z,1560
2018-02-10T13:24:32.745Z,1585
2018-02-10T13:25:42.179Z,1505
2018-02-10T13:26:52.125Z,1385
2018-02-10T13:28:02.074Z,1215
2018-02-10T13:29:12.040Z,1080
2018-02-10T13:30:22.008Z,905
2018-02-10T13:31:31.997Z,750
2018-02-10T13:32:41.696Z,710
2018-02-10T13:33:51.661Z,620
2018-02-10T13:35:01.635Z,630
2018-02-10T13:36:11.333Z,685
2018-02-10T13:37:21.295Z,910
2018-02-10T13:38:31.244Z,1110
2018-02-10T13:39:41.186Z,1285
2018-02-10T13:40:51.208Z,1310
2018-02-10T13:42:00.901Z,1260
2018-02-10T13:43:10.978Z,1255
2018-02-10T13:44:20.933Z,1280
2018-02-10T13:45:30.883Z,1290
2018-02-10T13:46:40.840Z,1240
2018-02-10T13:47:50.558Z,1205
2018-02-10T13:49:00.516Z,1165
2018-02-10T13:50:10.502Z,1140
2018-02-10T13:51:20.464Z,1080
2018-02-10T13:52:30.498Z,1005
2018-02-10T13:53:40.450Z,960
2018-02-10T13:54:50.425Z,905
2018-02-10T13:56:00.401Z,865
2018-02-10T13:57:09.849Z,845
2018-02-10T13:58:19.575Z,800
2018-02-10T13:59:29.538Z,590
2018-02-10T14:00:39.502Z,555
2018-02-10T14:01:49.452Z,520
2018-02-10T14:02:59.406Z,475
2018-02-10T14:04:09.381Z,445
2018-02-10T14:05:19.111Z,415
2018-02-10T14:06:29.078Z,395
2018-02-10T14:07:38.766Z,415
2018-02-10T14:08:48.465Z,330
2018-02-10T14:09:57.657Z,310
2018-02-10T14:11:07.362Z,320
2018-02-10T14:12:17.067Z,410
2018-02-10T14:13:26.758Z,410
2018-02-10T14:14:36.759Z,325
2018-02-10T14:15:46.710Z,330
2018-02-10T14:16:56.673Z,345
2018-02-10T14:18:06.621Z,350
2018-02-10T14:19:16.308Z,340
2018-02-10T14:20:26.316Z,315
2018-02-10T14:21:36.275Z,300
2018-02-10T14:22:46.224Z,280
2018-02-10T14:23:56.181Z,275
2018-02-10T14:25:06.121Z,270
2018-02-10T14:26:16.089Z,260
2018-02-10T14:27:26.061Z,250
2018-02-10T14:28:36.015Z,230
2018-02-10T14:29:45.960Z,210
2018-02-10T14:30:55.915Z,200
2018-02-10T14:32:05.879Z,195
2018-02-10T14:33:15.586Z,190
2018-02-10T14:34:25.538Z,190
2018-02-10T14:35:35.229Z,185
2018-02-10T14:36:44.924Z,185
2018-02-10T14:37:54.633Z,180
2018-02-10T14:39:04.591Z,180
2018-02-10T14:40:14.311Z,180
2018-02-10T14:41:24.312Z,170
2018-02-10T14:42:33.761Z,155
2018-02-10T14:43:43.723Z,145
2018-02-10T14:44:53.694Z,135
2018-02-10T14:46:03.389Z,120
2018-02-10T14:47:13.080Z,115
2018-02-10T14:48:22.780Z,110
2018-02-10T14:49:32.727Z,115
2018-02-10T14:50:42.671Z,115
2018-02-10T14:51:52.622Z,110
2018-02-10T14:53:02.580Z,105
2018-02-10T14:54:12.024Z,105
2018-02-10T14:55:21.996Z,105
2018-02-10T14:56:31.696Z,105
2018-02-10T14:57:41.379Z,105
2018-02-10T14:58:51.128Z,105
2018-02-10T15:00:00.846Z,100
2018-02-10T15:01:10.540Z,100
2018-02-10T15:02:20.502Z,95
2018-02-10T15:03:30.455Z,95
2018-02-10T15:04:40.196Z,90
2018-02-10T15:05:49.899Z,90
2018-02-10T15:06:59.590Z,90
2018-02-10T15:08:09.076Z,90
2018-02-10T15:09:19.053Z,80
2018-02-10T15:10:28.754Z,75
2018-02-10T15:11:38.715Z,75
2018-02-10T15:12:48.659Z,75
2018-02-10T15:13:58.606Z,75
2018-02-10T15:15:08.297Z,75
2018-02-10T15:16:18.251Z,75
2018-02-10T15:17:27.695Z,70
2018-02-10T15:18:37.642Z,60
2018-02-10T15:19:47.597Z,60
2018-02-10T15:20:57.296Z,60
2018-02-10T15:22:06.993Z,60
2018-02-10T15:23:16.689Z,60
2018-02-10T15:24:26.643Z,60
2018-02-10T15:25:36.346Z,55
2018-02-10T15:26:46.038Z,50
2018-02-10T15:27:55.740Z,45
2018-02-10T15:29:05.692Z,45
2018-02-10T15:30:15.387Z,45
2018-02-10T15:31:25.333Z,45
2018-02-10T15:32:35.295Z,45
2018-02-10T15:33:45.248Z,40
2018-02-10T15:34:54.935Z,40
2018-02-10T15:36:04.659Z,40
2018-02-10T15:37:14.614Z,40
2018-02-10T15:38:24.077Z,40
2018-02-10T15:39:34.054Z,35
2018-02-10T15:40:44.030Z,35
2018-02-10T15:41:53.988Z,30
2018-02-10T15:43:03.938Z,30
2018-02-10T15:44:13.894Z,30
2018-02-10T15:45:23.585Z,25
2018-02-10T15:46:33.556Z,25
2018-02-10T15:47:43.496Z,20
2018-02-10T15:48:53.189Z,20
2018-02-10T15:50:03.198Z,20
2018-02-10T15:51:13.218Z,20
2018-02-10T15:52:23.168Z,20
2018-02-10T15:53:32.857Z,15
2018-02-10T15:54:42.809Z,15
2018-02-10T15:55:52.528Z,15
2018-02-10T15:57:02.217Z,10
2018-02-10T15:58:12.178Z,10
2018-02-10T15:59:22.127Z,10
2018-02-10T16:00:31.824Z,10
2018-02-10T16:01:41.512Z,10
2018-02-10T16:02:51.214Z,10
2018-02-10T16:04:01.167Z,10
2018-02-10T16:05:11.136Z,10
2018-02-10T16:06:21.091Z,5
2018-02-10T16:07:30.537Z,5
2018-02-10T16:08:40.498Z,5
2018-02-10T16:09:50.008Z,5
2018-02-10T16:10:59.703Z,5
2018-02-10T16:12:09.398Z,5
2018-02-10T16:13:19.370Z,5
2018-02-10T16:14:29.340Z,5
2018-02-10T16:15:39.051Z,5
2018-02-10T16:16:48.997Z,0
2018-02-10T16:17:58.951Z,0
2018-02-10T16:19:08.920Z,0
2018-02-10T16:20:18.892Z,0
2018-02-10T16:21:28.911Z,0
2018-02-10T16:22:38.647Z,0
2018-02-10T16:23:48.333Z,0
2018-02-10T16:24:58.298Z,0
2018-02-10T16:26:08.007Z,0
2018-02-10T16:27:18.092Z,0
2018-02-10T16:28:28.051Z,0
2018-02-10T16:29:37.752Z,0
2018-02-10T16:30:47.703Z,0
2018-02-10T16:31:57.672Z,0
2018-02-10T16:33:07.398Z,0
2018-02-10T16:34:17.086Z,0
2018-02-10T16:35:26.770Z,0
2018-02-10T16:36:36.718Z,0
2018-02-10T16:37:46.660Z,0